KOQT METAR and TAF weather

Enter ICAO airport designator
Station Type Date Time Source
KOQT METAR 2019/03/20 02:53 UTC NOAA

KOQT 200253Z AUTO 00000KT 10SM CLR 04/M04 A3032 RMK AO2 SLP275 T00441044 53004


Station Type Date Time Source
KOQT Decoded METAR 2019/03/20 02:53 UTC NOAA

OAK RIDGE, TN, United States (KOQT) 36-01N 84-14W
Mar 19, 2019 - 10:53 PM EDT / 2019.03.20 0253 UTC
Wind: Calm:0
Visibility: 10 mile(s):0
Sky conditions: clear
Temperature: 39.9 F (4.4 C)
Dew Point: 24.1 F (-4.4 C)
Relative Humidity: 52%
Pressure (altimeter): 30.32 in. Hg (1026 hPa)
Pressure tendency: 0.01 inches (0.4 hPa) higher than three hours ago
ob: KOQT 200253Z AUTO 00000KT 10SM CLR 04/M04 A3032 RMK AO2 SLP275 T00441044 53004
cycle: 3

Station Type Date Time Source
KOQT TAF UTC NOAA

Error!

Example: see airport list